sensor_id;sensor_type;location;lat;lon;timestamp;P1;durP1;ratioP1;P2;durP2;ratioP2
15266;SDS011;7735;49.144;8.668;2023-07-08T00:01:57;7.53;;;4.63;;
15266;SDS011;7735;49.144;8.668;2023-07-08T00:04:25;8.70;;;4.60;;
15266;SDS011;7735;49.144;8.668;2023-07-08T00:06:52;10.90;;;5.40;;
15266;SDS011;7735;49.144;8.668;2023-07-08T00:09:19;10.23;;;5.00;;
15266;SDS011;7735;49.144;8.668;2023-07-08T00:11:45;12.07;;;4.70;;
15266;SDS011;7735;49.144;8.668;2023-07-08T00:14:12;10.17;;;4.60;;
15266;SDS011;7735;49.144;8.668;2023-07-08T00:16:39;9.30;;;4.73;;
15266;SDS011;7735;49.144;8.668;2023-07-08T00:19:07;9.07;;;5.23;;
15266;SDS011;7735;49.144;8.668;2023-07-08T00:21:36;8.67;;;4.60;;
15266;SDS011;7735;49.144;8.668;2023-07-08T00:24:03;9.77;;;4.90;;
15266;SDS011;7735;49.144;8.668;2023-07-08T00:26:30;9.37;;;4.50;;
15266;SDS011;7735;49.144;8.668;2023-07-08T00:28:57;9.17;;;4.43;;
15266;SDS011;7735;49.144;8.668;2023-07-08T00:31:24;9.60;;;4.90;;
15266;SDS011;7735;49.144;8.668;2023-07-08T00:33:51;7.23;;;4.53;;
15266;SDS011;7735;49.144;8.668;2023-07-08T00:36:20;10.30;;;5.00;;
15266;SDS011;7735;49.144;8.668;2023-07-08T00:38:48;10.03;;;5.00;;
15266;SDS011;7735;49.144;8.668;2023-07-08T00:41:16;9.77;;;5.17;;
15266;SDS011;7735;49.144;8.668;2023-07-08T00:43:48;8.53;;;4.47;;
15266;SDS011;7735;49.144;8.668;2023-07-08T00:46:33;6.20;;;3.83;;
15266;SDS011;7735;49.144;8.668;2023-07-08T00:49:20;8.37;;;4.70;;
15266;SDS011;7735;49.144;8.668;2023-07-08T00:51:54;7.40;;;4.67;;
15266;SDS011;7735;49.144;8.668;2023-07-08T00:54:23;9.00;;;4.80;;
15266;SDS011;7735;49.144;8.668;2023-07-08T00:56:51;8.67;;;4.77;;
15266;SDS011;7735;49.144;8.668;2023-07-08T00:59:22;8.80;;;5.00;;
15266;SDS011;7735;49.144;8.668;2023-07-08T01:01:51;12.20;;;4.80;;
15266;SDS011;7735;49.144;8.668;2023-07-08T01:04:20;10.77;;;4.97;;
15266;SDS011;7735;49.144;8.668;2023-07-08T01:06:51;8.23;;;4.83;;
15266;SDS011;7735;49.144;8.668;2023-07-08T01:09:25;7.57;;;4.83;;
15266;SDS011;7735;49.144;8.668;2023-07-08T01:11:54;11.33;;;4.80;;
15266;SDS011;7735;49.144;8.668;2023-07-08T01:14:23;8.70;;;4.53;;
15266;SDS011;7735;49.144;8.668;2023-07-08T01:16:56;10.80;;;4.67;;
15266;SDS011;7735;49.144;8.668;2023-07-08T01:19:23;7.93;;;4.87;;
15266;SDS011;7735;49.144;8.668;2023-07-08T01:22:01;8.67;;;4.70;;
15266;SDS011;7735;49.144;8.668;2023-07-08T01:24:29;9.83;;;4.53;;
15266;SDS011;7735;49.144;8.668;2023-07-08T01:26:57;8.07;;;4.50;;
15266;SDS011;7735;49.144;8.668;2023-07-08T01:29:26;11.13;;;4.70;;
15266;SDS011;7735;49.144;8.668;2023-07-08T01:31:54;11.93;;;4.97;;
15266;SDS011;7735;49.144;8.668;2023-07-08T01:34:21;9.03;;;4.80;;
15266;SDS011;7735;49.144;8.668;2023-07-08T01:36:50;10.43;;;4.87;;
15266;SDS011;7735;49.144;8.668;2023-07-08T01:39:22;8.07;;;4.90;;
15266;SDS011;7735;49.144;8.668;2023-07-08T01:41:50;9.97;;;5.00;;
15266;SDS011;7735;49.144;8.668;2023-07-08T01:44:20;11.17;;;5.20;;
15266;SDS011;7735;49.144;8.668;2023-07-08T01:46:48;9.67;;;4.77;;
15266;SDS011;7735;49.144;8.668;2023-07-08T01:49:16;10.60;;;4.73;;
15266;SDS011;7735;49.144;8.668;2023-07-08T01:51:44;9.77;;;5.13;;
15266;SDS011;7735;49.144;8.668;2023-07-08T01:54:14;8.77;;;4.63;;
15266;SDS011;7735;49.144;8.668;2023-07-08T01:56:42;8.53;;;5.00;;
15266;SDS011;7735;49.144;8.668;2023-07-08T01:59:08;6.77;;;4.37;;
15266;SDS011;7735;49.144;8.668;2023-07-08T02:01:35;7.63;;;4.47;;
15266;SDS011;7735;49.144;8.668;2023-07-08T02:04:02;9.67;;;4.70;;
15266;SDS011;7735;49.144;8.668;2023-07-08T02:06:28;9.60;;;4.83;;
15266;SDS011;7735;49.144;8.668;2023-07-08T02:08:55;8.63;;;4.73;;
15266;SDS011;7735;49.144;8.668;2023-07-08T02:11:24;9.70;;;5.17;;
15266;SDS011;7735;49.144;8.668;2023-07-08T02:13:52;8.93;;;4.90;;
15266;SDS011;7735;49.144;8.668;2023-07-08T02:16:18;7.93;;;4.67;;
15266;SDS011;7735;49.144;8.668;2023-07-08T02:18:45;8.90;;;4.80;;
15266;SDS011;7735;49.144;8.668;2023-07-08T02:21:12;9.13;;;4.80;;
15266;SDS011;7735;49.144;8.668;2023-07-08T02:23:38;9.70;;;4.70;;
15266;SDS011;7735;49.144;8.668;2023-07-08T02:26:05;9.53;;;4.60;;
15266;SDS011;7735;49.144;8.668;2023-07-08T02:28:32;7.50;;;4.50;;
15266;SDS011;7735;49.144;8.668;2023-07-08T02:31:02;9.07;;;4.53;;
15266;SDS011;7735;49.144;8.668;2023-07-08T02:33:29;5.90;;;4.27;;
15266;SDS011;7735;49.144;8.668;2023-07-08T02:35:58;8.70;;;5.13;;
15266;SDS011;7735;49.144;8.668;2023-07-08T02:38:25;8.90;;;5.07;;
15266;SDS011;7735;49.144;8.668;2023-07-08T02:40:52;8.10;;;4.80;;
15266;SDS011;7735;49.144;8.668;2023-07-08T02:43:18;8.83;;;4.67;;
15266;SDS011;7735;49.144;8.668;2023-07-08T02:45:45;8.07;;;4.83;;
15266;SDS011;7735;49.144;8.668;2023-07-08T02:48:16;7.23;;;5.10;;
15266;SDS011;7735;49.144;8.668;2023-07-08T02:50:43;8.43;;;4.83;;
15266;SDS011;7735;49.144;8.668;2023-07-08T02:53:10;7.87;;;4.90;;
15266;SDS011;7735;49.144;8.668;2023-07-08T02:55:36;8.77;;;5.17;;
15266;SDS011;7735;49.144;8.668;2023-07-08T02:58:04;8.87;;;4.90;;
15266;SDS011;7735;49.144;8.668;2023-07-08T03:00:31;8.67;;;4.90;;
15266;SDS011;7735;49.144;8.668;2023-07-08T03:02:58;8.20;;;4.57;;
15266;SDS011;7735;49.144;8.668;2023-07-08T03:05:26;8.50;;;4.90;;
15266;SDS011;7735;49.144;8.668;2023-07-08T03:07:52;8.13;;;4.53;;
15266;SDS011;7735;49.144;8.668;2023-07-08T03:10:19;7.90;;;4.57;;
15266;SDS011;7735;49.144;8.668;2023-07-08T03:12:46;9.70;;;4.97;;
15266;SDS011;7735;49.144;8.668;2023-07-08T03:15:12;8.03;;;4.47;;
15266;SDS011;7735;49.144;8.668;2023-07-08T03:17:39;7.60;;;4.90;;
15266;SDS011;7735;49.144;8.668;2023-07-08T03:20:07;9.43;;;4.47;;
15266;SDS011;7735;49.144;8.668;2023-07-08T03:22:37;8.07;;;4.80;;
15266;SDS011;7735;49.144;8.668;2023-07-08T03:25:04;10.53;;;4.87;;
15266;SDS011;7735;49.144;8.668;2023-07-08T03:27:31;8.70;;;4.77;;
15266;SDS011;7735;49.144;8.668;2023-07-08T03:29:57;10.10;;;4.87;;
15266;SDS011;7735;49.144;8.668;2023-07-08T03:32:24;9.93;;;5.00;;
15266;SDS011;7735;49.144;8.668;2023-07-08T03:34:51;8.87;;;4.47;;
15266;SDS011;7735;49.144;8.668;2023-07-08T03:37:18;7.47;;;4.40;;
15266;SDS011;7735;49.144;8.668;2023-07-08T03:39:46;8.00;;;4.57;;
15266;SDS011;7735;49.144;8.668;2023-07-08T03:42:13;7.53;;;4.60;;
15266;SDS011;7735;49.144;8.668;2023-07-08T03:44:40;8.00;;;4.80;;
15266;SDS011;7735;49.144;8.668;2023-07-08T03:47:07;8.20;;;4.60;;
15266;SDS011;7735;49.144;8.668;2023-07-08T03:49:34;9.07;;;4.47;;
15266;SDS011;7735;49.144;8.668;2023-07-08T03:52:00;7.30;;;4.87;;
15266;SDS011;7735;49.144;8.668;2023-07-08T03:54:27;9.70;;;4.57;;
15266;SDS011;7735;49.144;8.668;2023-07-08T03:56:55;7.60;;;4.77;;
15266;SDS011;7735;49.144;8.668;2023-07-08T03:59:22;7.83;;;4.80;;
15266;SDS011;7735;49.144;8.668;2023-07-08T04:01:48;8.10;;;4.53;;
15266;SDS011;7735;49.144;8.668;2023-07-08T04:04:15;7.17;;;4.37;;
15266;SDS011;7735;49.144;8.668;2023-07-08T04:06:42;8.33;;;4.73;;
15266;SDS011;7735;49.144;8.668;2023-07-08T04:09:10;9.27;;;4.53;;
15266;SDS011;7735;49.144;8.668;2023-07-08T04:11:37;10.20;;;5.03;;
15266;SDS011;7735;49.144;8.668;2023-07-08T04:14:05;8.30;;;4.80;;
15266;SDS011;7735;49.144;8.668;2023-07-08T04:16:33;9.43;;;4.30;;
15266;SDS011;7735;49.144;8.668;2023-07-08T04:19:10;8.13;;;5.00;;
15266;SDS011;7735;49.144;8.668;2023-07-08T04:21:39;9.20;;;4.80;;
15266;SDS011;7735;49.144;8.668;2023-07-08T04:24:07;7.57;;;4.33;;
15266;SDS011;7735;49.144;8.668;2023-07-08T04:26:35;8.13;;;4.90;;
15266;SDS011;7735;49.144;8.668;2023-07-08T04:29:05;10.00;;;5.30;;
15266;SDS011;7735;49.144;8.668;2023-07-08T04:31:35;9.13;;;4.93;;
15266;SDS011;7735;49.144;8.668;2023-07-08T04:34:02;7.87;;;4.53;;
15266;SDS011;7735;49.144;8.668;2023-07-08T04:36:28;9.53;;;4.87;;
15266;SDS011;7735;49.144;8.668;2023-07-08T04:38:55;8.57;;;4.97;;
15266;SDS011;7735;49.144;8.668;2023-07-08T04:41:23;6.70;;;4.57;;
15266;SDS011;7735;49.144;8.668;2023-07-08T04:43:50;9.53;;;5.40;;
15266;SDS011;7735;49.144;8.668;2023-07-08T04:46:27;9.77;;;4.93;;
15266;SDS011;7735;49.144;8.668;2023-07-08T04:49:02;7.53;;;4.40;;
15266;SDS011;7735;49.144;8.668;2023-07-08T04:51:30;6.97;;;4.50;;
15266;SDS011;7735;49.144;8.668;2023-07-08T04:53:56;7.80;;;4.70;;
15266;SDS011;7735;49.144;8.668;2023-07-08T04:56:24;8.33;;;4.80;;
15266;SDS011;7735;49.144;8.668;2023-07-08T04:58:52;6.70;;;4.43;;
15266;SDS011;7735;49.144;8.668;2023-07-08T05:01:20;8.13;;;4.40;;
15266;SDS011;7735;49.144;8.668;2023-07-08T05:03:46;9.37;;;4.73;;
15266;SDS011;7735;49.144;8.668;2023-07-08T05:06:13;7.77;;;4.60;;
15266;SDS011;7735;49.144;8.668;2023-07-08T05:08:54;12.23;;;5.10;;
15266;SDS011;7735;49.144;8.668;2023-07-08T05:11:20;10.17;;;5.03;;
15266;SDS011;7735;49.144;8.668;2023-07-08T05:13:47;6.93;;;4.73;;
15266;SDS011;7735;49.144;8.668;2023-07-08T05:16:14;8.73;;;4.90;;
15266;SDS011;7735;49.144;8.668;2023-07-08T05:18:42;7.27;;;4.70;;
15266;SDS011;7735;49.144;8.668;2023-07-08T05:21:08;9.40;;;5.43;;
15266;SDS011;7735;49.144;8.668;2023-07-08T05:23:36;6.63;;;4.60;;
15266;SDS011;7735;49.144;8.668;2023-07-08T05:26:03;7.70;;;5.00;;
15266;SDS011;7735;49.144;8.668;2023-07-08T05:28:30;8.87;;;4.93;;
15266;SDS011;7735;49.144;8.668;2023-07-08T05:30:57;10.33;;;4.67;;
15266;SDS011;7735;49.144;8.668;2023-07-08T05:33:24;11.97;;;4.30;;
15266;SDS011;7735;49.144;8.668;2023-07-08T05:35:53;8.23;;;4.43;;
15266;SDS011;7735;49.144;8.668;2023-07-08T05:38:20;11.10;;;5.20;;
15266;SDS011;7735;49.144;8.668;2023-07-08T05:40:48;7.07;;;4.13;;
15266;SDS011;7735;49.144;8.668;2023-07-08T05:43:15;8.73;;;5.07;;
15266;SDS011;7735;49.144;8.668;2023-07-08T05:45:42;7.10;;;3.93;;
15266;SDS011;7735;49.144;8.668;2023-07-08T05:48:09;7.80;;;4.57;;
15266;SDS011;7735;49.144;8.668;2023-07-08T05:50:39;7.57;;;4.13;;
15266;SDS011;7735;49.144;8.668;2023-07-08T05:53:34;9.00;;;4.97;;
15266;SDS011;7735;49.144;8.668;2023-07-08T05:56:01;7.97;;;4.47;;
15266;SDS011;7735;49.144;8.668;2023-07-08T05:58:29;7.80;;;4.53;;
15266;SDS011;7735;49.144;8.668;2023-07-08T06:00:56;7.53;;;4.87;;
15266;SDS011;7735;49.144;8.668;2023-07-08T06:03:23;6.47;;;4.00;;
15266;SDS011;7735;49.144;8.668;2023-07-08T06:05:51;7.73;;;4.20;;
15266;SDS011;7735;49.144;8.668;2023-07-08T06:08:18;6.80;;;4.30;;
15266;SDS011;7735;49.144;8.668;2023-07-08T06:10:46;9.20;;;4.90;;
15266;SDS011;7735;49.144;8.668;2023-07-08T06:25:01;9.17;;;4.03;;
15266;SDS011;7735;49.144;8.668;2023-07-08T06:27:30;6.10;;;3.70;;
15266;SDS011;7735;49.144;8.668;2023-07-08T06:29:57;6.40;;;3.90;;
15266;SDS011;7735;49.144;8.668;2023-07-08T06:32:23;6.17;;;3.80;;
15266;SDS011;7735;49.144;8.668;2023-07-08T06:34:50;8.20;;;3.83;;
15266;SDS011;7735;49.144;8.668;2023-07-08T06:37:16;5.90;;;3.50;;
15266;SDS011;7735;49.144;8.668;2023-07-08T06:39:46;8.57;;;4.70;;
15266;SDS011;7735;49.144;8.668;2023-07-08T06:42:13;6.77;;;4.23;;
15266;SDS011;7735;49.144;8.668;2023-07-08T06:44:44;6.23;;;4.37;;
15266;SDS011;7735;49.144;8.668;2023-07-08T06:47:15;8.27;;;4.90;;
15266;SDS011;7735;49.144;8.668;2023-07-08T06:49:42;7.50;;;3.83;;
15266;SDS011;7735;49.144;8.668;2023-07-08T06:52:09;6.23;;;3.37;;
15266;SDS011;7735;49.144;8.668;2023-07-08T06:54:35;7.27;;;3.73;;
15266;SDS011;7735;49.144;8.668;2023-07-08T06:57:02;7.07;;;4.00;;
15266;SDS011;7735;49.144;8.668;2023-07-08T06:59:30;7.20;;;3.80;;
15266;SDS011;7735;49.144;8.668;2023-07-08T07:01:58;6.37;;;3.30;;
15266;SDS011;7735;49.144;8.668;2023-07-08T07:04:24;6.53;;;2.93;;
15266;SDS011;7735;49.144;8.668;2023-07-08T07:06:57;7.47;;;3.43;;
15266;SDS011;7735;49.144;8.668;2023-07-08T07:09:24;8.20;;;4.00;;
15266;SDS011;7735;49.144;8.668;2023-07-08T07:11:51;7.57;;;4.00;;
15266;SDS011;7735;49.144;8.668;2023-07-08T07:14:19;8.20;;;3.67;;
15266;SDS011;7735;49.144;8.668;2023-07-08T07:16:45;6.67;;;3.23;;
15266;SDS011;7735;49.144;8.668;2023-07-08T07:19:14;6.63;;;3.73;;
15266;SDS011;7735;49.144;8.668;2023-07-08T07:21:40;8.93;;;3.20;;
15266;SDS011;7735;49.144;8.668;2023-07-08T07:26:58;5.03;;;3.43;;
15266;SDS011;7735;49.144;8.668;2023-07-08T07:29:25;5.97;;;3.40;;
15266;SDS011;7735;49.144;8.668;2023-07-08T07:31:52;9.80;;;3.57;;
15266;SDS011;7735;49.144;8.668;2023-07-08T07:34:21;5.40;;;3.30;;
15266;SDS011;7735;49.144;8.668;2023-07-08T07:36:47;4.40;;;2.70;;
15266;SDS011;7735;49.144;8.668;2023-07-08T07:39:14;8.60;;;3.43;;
15266;SDS011;7735;49.144;8.668;2023-07-08T07:41:44;6.50;;;3.37;;
15266;SDS011;7735;49.144;8.668;2023-07-08T07:44:35;5.40;;;3.07;;
15266;SDS011;7735;49.144;8.668;2023-07-08T07:50:40;7.57;;;3.47;;
15266;SDS011;7735;49.144;8.668;2023-07-08T07:53:27;5.43;;;3.20;;
15266;SDS011;7735;49.144;8.668;2023-07-08T07:56:54;5.90;;;3.00;;
15266;SDS011;7735;49.144;8.668;2023-07-08T07:59:21;4.83;;;3.40;;
15266;SDS011;7735;49.144;8.668;2023-07-08T08:01:48;6.57;;;3.10;;
15266;SDS011;7735;49.144;8.668;2023-07-08T08:04:14;4.07;;;2.43;;
15266;SDS011;7735;49.144;8.668;2023-07-08T08:06:42;8.27;;;3.63;;
15266;SDS011;7735;49.144;8.668;2023-07-08T08:09:09;4.53;;;2.77;;
15266;SDS011;7735;49.144;8.668;2023-07-08T08:11:36;3.90;;;2.73;;
15266;SDS011;7735;49.144;8.668;2023-07-08T08:14:02;6.67;;;3.30;;
15266;SDS011;7735;49.144;8.668;2023-07-08T08:19:30;6.07;;;3.07;;
15266;SDS011;7735;49.144;8.668;2023-07-08T08:21:59;6.93;;;3.40;;
15266;SDS011;7735;49.144;8.668;2023-07-08T08:24:28;3.87;;;2.70;;
15266;SDS011;7735;49.144;8.668;2023-07-08T08:26:55;7.67;;;3.13;;
15266;SDS011;7735;49.144;8.668;2023-07-08T08:29:21;5.27;;;3.17;;
15266;SDS011;7735;49.144;8.668;2023-07-08T08:31:48;5.37;;;2.73;;
15266;SDS011;7735;49.144;8.668;2023-07-08T08:34:15;5.97;;;3.30;;
15266;SDS011;7735;49.144;8.668;2023-07-08T08:36:42;5.13;;;3.47;;
15266;SDS011;7735;49.144;8.668;2023-07-08T08:39:10;5.20;;;3.30;;
15266;SDS011;7735;49.144;8.668;2023-07-08T08:41:38;6.63;;;3.70;;
15266;SDS011;7735;49.144;8.668;2023-07-08T08:44:09;6.37;;;3.40;;
15266;SDS011;7735;49.144;8.668;2023-07-08T08:46:41;4.77;;;2.97;;
15266;SDS011;7735;49.144;8.668;2023-07-08T08:49:17;3.90;;;2.80;;
15266;SDS011;7735;49.144;8.668;2023-07-08T08:51:50;5.73;;;2.80;;
15266;SDS011;7735;49.144;8.668;2023-07-08T08:54:19;6.57;;;3.27;;
15266;SDS011;7735;49.144;8.668;2023-07-08T08:56:48;5.80;;;3.07;;
15266;SDS011;7735;49.144;8.668;2023-07-08T08:59:27;4.73;;;2.70;;
15266;SDS011;7735;49.144;8.668;2023-07-08T09:02:07;3.93;;;2.80;;
15266;SDS011;7735;49.144;8.668;2023-07-08T09:04:51;4.37;;;2.60;;
15266;SDS011;7735;49.144;8.668;2023-07-08T09:07:19;3.53;;;2.00;;
15266;SDS011;7735;49.144;8.668;2023-07-08T09:09:49;4.63;;;2.40;;
15266;SDS011;7735;49.144;8.668;2023-07-08T09:12:24;4.33;;;2.20;;
15266;SDS011;7735;49.144;8.668;2023-07-08T09:14:53;3.17;;;1.90;;
15266;SDS011;7735;49.144;8.668;2023-07-08T09:17:22;4.47;;;2.10;;
15266;SDS011;7735;49.144;8.668;2023-07-08T09:19:51;3.80;;;2.13;;
15266;SDS011;7735;49.144;8.668;2023-07-08T09:22:25;3.53;;;2.13;;
15266;SDS011;7735;49.144;8.668;2023-07-08T09:25:01;5.13;;;1.87;;
15266;SDS011;7735;49.144;8.668;2023-07-08T09:27:36;3.07;;;2.00;;
15266;SDS011;7735;49.144;8.668;2023-07-08T09:30:03;4.23;;;1.90;;
15266;SDS011;7735;49.144;8.668;2023-07-08T09:32:30;2.50;;;1.40;;
15266;SDS011;7735;49.144;8.668;2023-07-08T09:35:01;6.70;;;2.20;;
15266;SDS011;7735;49.144;8.668;2023-07-08T09:37:32;4.27;;;1.90;;
15266;SDS011;7735;49.144;8.668;2023-07-08T09:40:03;2.30;;;1.53;;
15266;SDS011;7735;49.144;8.668;2023-07-08T09:42:40;3.60;;;1.80;;
15266;SDS011;7735;49.144;8.668;2023-07-08T09:45:11;3.53;;;1.60;;
15266;SDS011;7735;49.144;8.668;2023-07-08T09:47:39;1.60;;;1.17;;
15266;SDS011;7735;49.144;8.668;2023-07-08T09:50:15;4.17;;;1.90;;
15266;SDS011;7735;49.144;8.668;2023-07-08T09:52:45;1.63;;;1.38;;
15266;SDS011;7735;49.144;8.668;2023-07-08T09:55:14;5.40;;;1.20;;
15266;SDS011;7735;49.144;8.668;2023-07-08T09:57:41;2.83;;;1.33;;
15266;SDS011;7735;49.144;8.668;2023-07-08T10:00:11;4.10;;;1.60;;
15266;SDS011;7735;49.144;8.668;2023-07-08T10:02:42;2.28;;;1.20;;
15266;SDS011;7735;49.144;8.668;2023-07-08T10:05:15;2.78;;;1.52;;
15266;SDS011;7735;49.144;8.668;2023-07-08T10:07:45;2.90;;;1.30;;
15266;SDS011;7735;49.144;8.668;2023-07-08T10:10:15;2.20;;;1.17;;
15266;SDS011;7735;49.144;8.668;2023-07-08T10:12:49;2.88;;;1.50;;
15266;SDS011;7735;49.144;8.668;2023-07-08T10:15:22;3.90;;;1.77;;
15266;SDS011;7735;49.144;8.668;2023-07-08T10:17:54;3.63;;;1.55;;
15266;SDS011;7735;49.144;8.668;2023-07-08T10:20:21;1.98;;;1.35;;
15266;SDS011;7735;49.144;8.668;2023-07-08T10:22:53;2.65;;;1.35;;
15266;SDS011;7735;49.144;8.668;2023-07-08T10:25:33;2.88;;;1.50;;
15266;SDS011;7735;49.144;8.668;2023-07-08T10:28:12;1.88;;;1.50;;
15266;SDS011;7735;49.144;8.668;2023-07-08T10:30:50;3.38;;;1.42;;
15266;SDS011;7735;49.144;8.668;2023-07-08T10:33:33;2.50;;;1.60;;
15266;SDS011;7735;49.144;8.668;2023-07-08T10:36:19;2.50;;;1.50;;
15266;SDS011;7735;49.144;8.668;2023-07-08T10:39:08;3.85;;;1.35;;
15266;SDS011;7735;49.144;8.668;2023-07-08T10:41:52;5.07;;;1.65;;
15266;SDS011;7735;49.144;8.668;2023-07-08T10:44:25;3.33;;;1.70;;
15266;SDS011;7735;49.144;8.668;2023-07-08T10:47:02;2.63;;;1.65;;
15266;SDS011;7735;49.144;8.668;2023-07-08T10:49:38;1.98;;;1.50;;
15266;SDS011;7735;49.144;8.668;2023-07-08T10:52:24;4.28;;;1.38;;
15266;SDS011;7735;49.144;8.668;2023-07-08T10:55:03;2.97;;;1.73;;
15266;SDS011;7735;49.144;8.668;2023-07-08T11:01:01;3.53;;;1.90;;
15266;SDS011;7735;49.144;8.668;2023-07-08T11:06:26;2.95;;;1.73;;
15266;SDS011;7735;49.144;8.668;2023-07-08T11:09:01;4.90;;;2.20;;
15266;SDS011;7735;49.144;8.668;2023-07-08T11:11:32;4.03;;;2.10;;
15266;SDS011;7735;49.144;8.668;2023-07-08T11:14:06;5.40;;;2.33;;
15266;SDS011;7735;49.144;8.668;2023-07-08T11:16:41;3.63;;;2.28;;
15266;SDS011;7735;49.144;8.668;2023-07-08T11:19:15;4.15;;;2.17;;
15266;SDS011;7735;49.144;8.668;2023-07-08T11:21:46;3.33;;;2.05;;
15266;SDS011;7735;49.144;8.668;2023-07-08T11:24:20;3.15;;;1.77;;
15266;SDS011;7735;49.144;8.668;2023-07-08T11:26:52;3.17;;;1.63;;
15266;SDS011;7735;49.144;8.668;2023-07-08T11:29:22;3.75;;;2.05;;
15266;SDS011;7735;49.144;8.668;2023-07-08T11:31:52;2.45;;;1.63;;
15266;SDS011;7735;49.144;8.668;2023-07-08T11:34:21;5.03;;;2.10;;
15266;SDS011;7735;49.144;8.668;2023-07-08T11:36:50;3.38;;;1.88;;
15266;SDS011;7735;49.144;8.668;2023-07-08T11:39:27;3.42;;;2.00;;
15266;SDS011;7735;49.144;8.668;2023-07-08T11:42:04;5.07;;;2.10;;
15266;SDS011;7735;49.144;8.668;2023-07-08T11:44:41;3.15;;;2.17;;
15266;SDS011;7735;49.144;8.668;2023-07-08T11:47:15;3.80;;;2.75;;
15266;SDS011;7735;49.144;8.668;2023-07-08T11:49:46;5.47;;;2.58;;
15266;SDS011;7735;49.144;8.668;2023-07-08T11:52:16;3.95;;;2.05;;
15266;SDS011;7735;49.144;8.668;2023-07-08T11:54:45;4.43;;;2.70;;
15266;SDS011;7735;49.144;8.668;2023-07-08T11:57:19;3.75;;;2.40;;
15266;SDS011;7735;49.144;8.668;2023-07-08T12:00:06;5.25;;;2.65;;
15266;SDS011;7735;49.144;8.668;2023-07-08T12:02:52;6.18;;;2.30;;
15266;SDS011;7735;49.144;8.668;2023-07-08T12:05:36;3.58;;;2.53;;
15266;SDS011;7735;49.144;8.668;2023-07-08T12:08:11;3.72;;;2.33;;
15266;SDS011;7735;49.144;8.668;2023-07-08T12:10:39;5.40;;;2.40;;
15266;SDS011;7735;49.144;8.668;2023-07-08T12:13:13;5.47;;;2.40;;
15266;SDS011;7735;49.144;8.668;2023-07-08T12:15:41;5.20;;;2.28;;
15266;SDS011;7735;49.144;8.668;2023-07-08T12:18:12;3.13;;;2.03;;
15266;SDS011;7735;49.144;8.668;2023-07-08T12:20:42;4.30;;;2.50;;
15266;SDS011;7735;49.144;8.668;2023-07-08T12:23:12;4.13;;;2.05;;
15266;SDS011;7735;49.144;8.668;2023-07-08T12:25:41;4.32;;;2.40;;
15266;SDS011;7735;49.144;8.668;2023-07-08T12:28:08;4.70;;;2.08;;
15266;SDS011;7735;49.144;8.668;2023-07-08T12:30:40;3.65;;;2.38;;
15266;SDS011;7735;49.144;8.668;2023-07-08T12:33:09;6.68;;;2.60;;
15266;SDS011;7735;49.144;8.668;2023-07-08T12:35:40;8.23;;;2.83;;
15266;SDS011;7735;49.144;8.668;2023-07-08T12:38:15;4.68;;;2.63;;
15266;SDS011;7735;49.144;8.668;2023-07-08T12:40:47;4.13;;;2.33;;
15266;SDS011;7735;49.144;8.668;2023-07-08T12:43:13;3.45;;;2.45;;
15266;SDS011;7735;49.144;8.668;2023-07-08T12:45:43;4.95;;;2.30;;
15266;SDS011;7735;49.144;8.668;2023-07-08T12:48:11;3.05;;;2.17;;
15266;SDS011;7735;49.144;8.668;2023-07-08T12:50:38;3.50;;;2.30;;
15266;SDS011;7735;49.144;8.668;2023-07-08T12:53:05;4.70;;;2.25;;
15266;SDS011;7735;49.144;8.668;2023-07-08T12:55:35;4.60;;;2.20;;
15266;SDS011;7735;49.144;8.668;2023-07-08T12:58:03;3.53;;;1.98;;
15266;SDS011;7735;49.144;8.668;2023-07-08T13:00:31;4.82;;;2.53;;
15266;SDS011;7735;49.144;8.668;2023-07-08T13:03:04;4.57;;;2.20;;
15266;SDS011;7735;49.144;8.668;2023-07-08T13:05:34;3.08;;;2.05;;
15266;SDS011;7735;49.144;8.668;2023-07-08T13:08:02;3.90;;;2.45;;
15266;SDS011;7735;49.144;8.668;2023-07-08T13:10:33;2.92;;;1.98;;
15266;SDS011;7735;49.144;8.668;2023-07-08T13:13:02;6.50;;;2.20;;
15266;SDS011;7735;49.144;8.668;2023-07-08T13:15:33;3.10;;;1.92;;
15266;SDS011;7735;49.144;8.668;2023-07-08T13:18:04;5.93;;;2.10;;
15266;SDS011;7735;49.144;8.668;2023-07-08T13:20:31;5.70;;;2.03;;
15266;SDS011;7735;49.144;8.668;2023-07-08T13:23:00;5.10;;;2.22;;
15266;SDS011;7735;49.144;8.668;2023-07-08T13:25:29;3.28;;;2.40;;
15266;SDS011;7735;49.144;8.668;2023-07-08T13:27:59;3.05;;;1.90;;
15266;SDS011;7735;49.144;8.668;2023-07-08T13:30:29;3.17;;;1.98;;
15266;SDS011;7735;49.144;8.668;2023-07-08T13:35:47;3.28;;;2.35;;
15266;SDS011;7735;49.144;8.668;2023-07-08T13:38:18;6.95;;;2.72;;
15266;SDS011;7735;49.144;8.668;2023-07-08T13:40:53;3.42;;;2.22;;
15266;SDS011;7735;49.144;8.668;2023-07-08T13:43:30;3.38;;;1.98;;
15266;SDS011;7735;49.144;8.668;2023-07-08T13:45:58;3.08;;;2.25;;
15266;SDS011;7735;49.144;8.668;2023-07-08T13:48:26;2.85;;;2.25;;
15266;SDS011;7735;49.144;8.668;2023-07-08T13:50:56;3.40;;;2.10;;
15266;SDS011;7735;49.144;8.668;2023-07-08T13:53:40;4.25;;;2.03;;
15266;SDS011;7735;49.144;8.668;2023-07-08T13:56:12;2.67;;;2.03;;
15266;SDS011;7735;49.144;8.668;2023-07-08T13:58:41;3.75;;;2.08;;
15266;SDS011;7735;49.144;8.668;2023-07-08T14:01:20;3.53;;;2.25;;
15266;SDS011;7735;49.144;8.668;2023-07-08T14:03:50;6.35;;;2.58;;
15266;SDS011;7735;49.144;8.668;2023-07-08T14:06:21;4.85;;;3.00;;
15266;SDS011;7735;49.144;8.668;2023-07-08T14:09:21;3.83;;;2.25;;
15266;SDS011;7735;49.144;8.668;2023-07-08T14:12:03;3.15;;;2.20;;
15266;SDS011;7735;49.144;8.668;2023-07-08T14:14:30;6.13;;;2.33;;
15266;SDS011;7735;49.144;8.668;2023-07-08T14:17:29;3.45;;;2.05;;
15266;SDS011;7735;49.144;8.668;2023-07-08T14:19:56;4.53;;;2.28;;
15266;SDS011;7735;49.144;8.668;2023-07-08T14:22:29;3.55;;;2.20;;
15266;SDS011;7735;49.144;8.668;2023-07-08T14:25:06;4.60;;;2.28;;
15266;SDS011;7735;49.144;8.668;2023-07-08T14:27:35;3.25;;;2.30;;
15266;SDS011;7735;49.144;8.668;2023-07-08T14:30:02;5.20;;;2.70;;
15266;SDS011;7735;49.144;8.668;2023-07-08T14:32:30;4.05;;;2.33;;
15266;SDS011;7735;49.144;8.668;2023-07-08T14:34:59;3.67;;;2.42;;
15266;SDS011;7735;49.144;8.668;2023-07-08T14:37:34;4.10;;;2.58;;
15266;SDS011;7735;49.144;8.668;2023-07-08T14:40:03;3.67;;;2.13;;
15266;SDS011;7735;49.144;8.668;2023-07-08T14:42:44;2.88;;;2.20;;
15266;SDS011;7735;49.144;8.668;2023-07-08T14:45:11;4.18;;;2.28;;
15266;SDS011;7735;49.144;8.668;2023-07-08T14:47:38;5.05;;;2.70;;
15266;SDS011;7735;49.144;8.668;2023-07-08T14:50:11;6.18;;;2.30;;
15266;SDS011;7735;49.144;8.668;2023-07-08T14:52:39;5.65;;;2.30;;
15266;SDS011;7735;49.144;8.668;2023-07-08T14:55:08;3.95;;;2.30;;
15266;SDS011;7735;49.144;8.668;2023-07-08T14:57:39;3.42;;;2.10;;
15266;SDS011;7735;49.144;8.668;2023-07-08T15:00:11;3.92;;;2.30;;
15266;SDS011;7735;49.144;8.668;2023-07-08T15:02:39;3.45;;;2.20;;
15266;SDS011;7735;49.144;8.668;2023-07-08T15:05:10;5.78;;;2.15;;
15266;SDS011;7735;49.144;8.668;2023-07-08T15:07:40;4.47;;;2.35;;
15266;SDS011;7735;49.144;8.668;2023-07-08T15:10:09;4.05;;;2.38;;
15266;SDS011;7735;49.144;8.668;2023-07-08T15:12:36;3.22;;;2.03;;
15266;SDS011;7735;49.144;8.668;2023-07-08T15:15:03;3.17;;;2.10;;
15266;SDS011;7735;49.144;8.668;2023-07-08T15:17:30;3.22;;;1.85;;
15266;SDS011;7735;49.144;8.668;2023-07-08T15:19:57;2.58;;;1.90;;
15266;SDS011;7735;49.144;8.668;2023-07-08T15:22:31;3.83;;;2.47;;
15266;SDS011;7735;49.144;8.668;2023-07-08T15:24:58;5.05;;;2.30;;
15266;SDS011;7735;49.144;8.668;2023-07-08T15:27:26;3.10;;;2.30;;
15266;SDS011;7735;49.144;8.668;2023-07-08T15:29:53;5.15;;;2.38;;
15266;SDS011;7735;49.144;8.668;2023-07-08T15:32:20;4.32;;;2.10;;
15266;SDS011;7735;49.144;8.668;2023-07-08T15:34:47;4.85;;;2.22;;
15266;SDS011;7735;49.144;8.668;2023-07-08T15:37:14;2.92;;;2.13;;
15266;SDS011;7735;49.144;8.668;2023-07-08T15:39:41;3.70;;;2.30;;
15266;SDS011;7735;49.144;8.668;2023-07-08T15:42:11;6.72;;;3.67;;
15266;SDS011;7735;49.144;8.668;2023-07-08T15:44:40;5.60;;;2.80;;
15266;SDS011;7735;49.144;8.668;2023-07-08T15:47:08;7.10;;;4.13;;
15266;SDS011;7735;49.144;8.668;2023-07-08T15:49:38;4.03;;;2.50;;